Gunn City, Missouri
Current Conditions -  °F | °C
As of 9:55 AM on Thursday 30 Oct 2014 (Local Time) from KRCM Reporting Station
Broken Clouds Broken Clouds  
Wind Chill: 55°   Ceiling: 9000
Heat Index: 55°   Visibility: 10mi
Dew Point: 41°   Wind: 7mph
Humidity: 58%   Direction: 180°S
Pressure: 30.04"   Gusts: NA
Location:  38.5641°N, 94.1793°W
Report Text: KRCM 301455Z AUTO 18006KT 10SM BKN090 BKN120 13/05 A3004 RMK AO2
Loading
Personal Weather Stations






























Interactive Weather Map
Tropical Storm Tracking
New forecast layout! Learn more

10-Day Weather Forecast

Advertisements
Track Severe Weather on mobile